createdAt,value
2018-07-11T00:00:37.264Z,0.00
2018-07-11T00:01:37.254Z,0.00
2018-07-11T00:02:37.266Z,0.00
2018-07-11T00:03:37.228Z,0.00
2018-07-11T00:04:37.221Z,0.00
2018-07-11T00:05:37.207Z,0.00
2018-07-11T00:06:37.196Z,0.00
2018-07-11T00:07:37.185Z,0.00
2018-07-11T00:08:37.190Z,0.00
2018-07-11T00:09:37.163Z,0.00
2018-07-11T00:10:37.153Z,0.00
2018-07-11T00:11:37.143Z,0.00
2018-07-11T00:12:37.134Z,0.00
2018-07-11T00:13:37.159Z,0.00
2018-07-11T00:14:37.111Z,0.00
2018-07-11T00:15:37.100Z,0.00
2018-07-11T00:16:37.091Z,0.00
2018-07-11T00:17:37.078Z,0.00
2018-07-11T00:18:37.068Z,0.00
2018-07-11T00:19:37.080Z,0.00
2018-07-11T00:20:37.047Z,0.00
2018-07-11T00:21:37.034Z,0.00
2018-07-11T00:22:37.025Z,0.00
2018-07-11T00:23:37.016Z,0.00
2018-07-11T00:24:37.016Z,0.00
2018-07-11T00:25:36.992Z,0.00
2018-07-11T00:26:36.980Z,0.00
2018-07-11T00:27:36.971Z,0.00
2018-07-11T00:28:36.958Z,0.00
2018-07-11T00:29:36.959Z,0.00
2018-07-11T00:30:36.950Z,0.00
2018-07-11T00:31:36.927Z,0.00
2018-07-11T00:32:36.928Z,0.00
2018-07-11T00:33:36.902Z,0.00
2018-07-11T00:34:36.893Z,0.00
2018-07-11T00:35:36.882Z,0.00
2018-07-11T00:36:36.872Z,0.00
2018-07-11T00:37:36.860Z,0.00
2018-07-11T00:38:36.863Z,0.00
2018-07-11T00:39:36.882Z,0.00
2018-07-11T00:40:36.830Z,0.00
2018-07-11T00:41:36.818Z,0.00
2018-07-11T00:42:36.809Z,0.00
2018-07-11T00:43:36.792Z,0.00
2018-07-11T00:44:36.784Z,0.00
2018-07-11T00:45:36.784Z,0.00
2018-07-11T00:46:36.785Z,0.00
2018-07-11T00:47:36.751Z,0.00
2018-07-11T00:48:37.403Z,0.00
2018-07-11T00:49:36.727Z,0.00
2018-07-11T00:50:36.717Z,0.00
2018-07-11T00:51:36.710Z,0.00
2018-07-11T00:52:36.712Z,0.00
2018-07-11T00:53:36.684Z,0.00
2018-07-11T00:54:36.677Z,0.00
2018-07-11T00:55:36.666Z,0.00
2018-07-11T00:56:36.667Z,0.00
2018-07-11T00:57:36.644Z,0.00
2018-07-11T00:58:36.633Z,0.00
2018-07-11T00:59:36.623Z,0.00
2018-07-11T01:00:36.608Z,0.00
2018-07-11T01:01:36.610Z,0.00
2018-07-11T01:02:36.586Z,0.00
2018-07-11T01:03:36.578Z,0.00
2018-07-11T01:04:36.580Z,0.00
2018-07-11T01:05:36.557Z,0.00
2018-07-11T01:06:36.561Z,0.00
2018-07-11T01:07:36.532Z,0.00
2018-07-11T01:08:36.524Z,0.00
2018-07-11T01:09:36.511Z,0.00
2018-07-11T01:10:36.503Z,0.00
2018-07-11T01:11:36.505Z,0.00
2018-07-11T01:12:36.491Z,0.00
2018-07-11T01:13:36.467Z,0.00
2018-07-11T01:14:36.473Z,0.00
2018-07-11T01:15:36.453Z,0.00
2018-07-11T01:16:36.438Z,0.00
2018-07-11T01:17:36.441Z,0.00
2018-07-11T01:18:36.415Z,0.00
2018-07-11T01:19:36.403Z,0.00
2018-07-11T01:20:36.391Z,0.00
2018-07-11T01:21:36.397Z,0.00
2018-07-11T01:22:36.388Z,0.00
2018-07-11T01:23:36.359Z,0.00
2018-07-11T01:24:36.347Z,0.00
2018-07-11T01:25:36.339Z,0.00
2018-07-11T01:26:36.326Z,0.00
2018-07-11T01:27:36.317Z,0.00
2018-07-11T01:28:36.319Z,0.00
2018-07-11T01:29:36.292Z,0.00
2018-07-11T01:30:36.280Z,0.00
2018-07-11T01:31:36.295Z,0.00
2018-07-11T01:32:36.259Z,0.00
2018-07-11T01:33:36.247Z,0.00
2018-07-11T01:34:36.237Z,0.00
2018-07-11T01:35:36.226Z,0.00
2018-07-11T01:36:36.215Z,0.00
2018-07-11T01:37:36.223Z,0.00
2018-07-11T01:38:36.193Z,0.00
2018-07-11T01:39:36.182Z,0.00
2018-07-11T01:40:36.173Z,0.00
2018-07-11T01:41:36.166Z,0.00
2018-07-11T01:42:36.152Z,0.00
2018-07-11T01:43:36.147Z,0.00
2018-07-11T01:44:36.130Z,0.00
2018-07-11T01:45:36.119Z,0.00
2018-07-11T01:46:36.121Z,0.00
2018-07-11T01:47:36.095Z,0.00
2018-07-11T01:48:36.101Z,0.00
2018-07-11T01:49:36.087Z,0.00
2018-07-11T01:50:36.062Z,0.00
2018-07-11T01:51:36.052Z,0.00
2018-07-11T01:52:36.040Z,0.00
2018-07-11T01:53:36.028Z,0.00
2018-07-11T01:54:36.035Z,0.00
2018-07-11T01:55:36.009Z,0.00
2018-07-11T01:56:35.999Z,0.00
2018-07-11T01:57:35.988Z,0.00
2018-07-11T01:58:35.976Z,0.00
2018-07-11T01:59:35.980Z,0.00
2018-07-11T02:00:35.951Z,0.00
2018-07-11T02:01:35.944Z,0.00
2018-07-11T02:02:35.930Z,0.00
2018-07-11T02:03:35.932Z,0.00
2018-07-11T02:04:35.908Z,0.00
2018-07-11T02:05:35.900Z,0.00
2018-07-11T02:06:35.900Z,0.00
2018-07-11T02:07:35.879Z,0.00
2018-07-11T02:08:35.867Z,0.00
2018-07-11T02:09:35.855Z,0.00
2018-07-11T02:10:35.850Z,0.00
2018-07-11T02:11:35.850Z,0.00
2018-07-11T02:12:35.821Z,0.00
2018-07-11T02:13:35.822Z,0.00
2018-07-11T02:14:35.799Z,0.00
2018-07-11T02:15:35.792Z,0.00
2018-07-11T02:16:35.779Z,0.00
2018-07-11T02:17:35.784Z,0.00
2018-07-11T02:18:35.770Z,0.00
2018-07-11T02:19:35.748Z,0.00
2018-07-11T02:20:35.737Z,0.00
2018-07-11T02:21:35.729Z,0.00
2018-07-11T02:22:35.712Z,0.00
2018-07-11T02:23:35.717Z,0.00
2018-07-11T02:24:35.693Z,0.00
2018-07-11T02:25:35.687Z,0.00
2018-07-11T02:26:35.672Z,0.00
2018-07-11T02:27:35.663Z,0.00
2018-07-11T02:28:35.659Z,0.00
2018-07-11T02:29:35.660Z,0.00
2018-07-11T02:30:35.630Z,0.00
2018-07-11T02:31:35.623Z,0.00
2018-07-11T02:32:35.613Z,0.00
2018-07-11T02:33:35.600Z,0.00
2018-07-11T02:34:35.589Z,0.00
2018-07-11T02:35:35.588Z,0.00
2018-07-11T02:36:35.563Z,0.00
2018-07-11T02:37:35.548Z,0.00
2018-07-11T02:38:35.541Z,4.00
2018-07-11T02:39:35.531Z,4.00
2018-07-11T02:40:35.537Z,4.00
2018-07-11T02:41:35.508Z,4.00
2018-07-11T02:42:35.495Z,4.00
2018-07-11T02:43:35.483Z,4.00
2018-07-11T02:44:35.471Z,4.00
2018-07-11T02:45:35.481Z,8.00
2018-07-11T02:46:35.454Z,4.00
2018-07-11T02:47:35.443Z,8.00
2018-07-11T02:48:35.447Z,8.00
2018-07-11T02:49:35.421Z,12.00
2018-07-11T02:50:35.415Z,12.00
2018-07-11T02:51:35.399Z,12.00
2018-07-11T02:52:35.388Z,16.00
2018-07-11T02:53:35.381Z,16.00
2018-07-11T02:54:35.377Z,20.00
2018-07-11T02:55:35.355Z,20.00
2018-07-11T02:56:35.346Z,24.00
2018-07-11T02:57:35.350Z,24.00
2018-07-11T02:58:35.320Z,32.00
2018-07-11T02:59:35.308Z,32.00
2018-07-11T03:00:35.301Z,36.00
2018-07-11T03:01:35.290Z,44.00
2018-07-11T03:02:35.290Z,48.00
2018-07-11T03:03:35.264Z,52.00
2018-07-11T03:04:35.256Z,60.00
2018-07-11T03:05:35.243Z,68.00
2018-07-11T03:06:35.237Z,72.00
2018-07-11T03:07:35.239Z,80.00
2018-07-11T03:08:35.213Z,88.00
2018-07-11T03:09:35.213Z,96.00
2018-07-11T03:10:35.192Z,104.00
2018-07-11T03:11:35.182Z,116.00
2018-07-11T03:12:35.171Z,132.00
2018-07-11T03:13:35.158Z,140.00
2018-07-11T03:14:35.167Z,152.00
2018-07-11T03:15:35.139Z,164.00
2018-07-11T03:16:35.129Z,172.00
2018-07-11T03:17:35.114Z,188.00
2018-07-11T03:18:35.107Z,200.00
2018-07-11T03:19:35.115Z,216.00
2018-07-11T03:20:35.082Z,232.00
2018-07-11T03:21:35.076Z,244.00
2018-07-11T03:22:35.062Z,260.00
2018-07-11T03:23:35.052Z,280.00
2018-07-11T03:24:35.041Z,292.00
2018-07-11T03:25:35.041Z,312.00
2018-07-11T03:26:35.044Z,328.00
2018-07-11T03:27:35.008Z,340.00
2018-07-11T03:28:34.999Z,360.00
2018-07-11T03:29:34.984Z,376.00
2018-07-11T03:30:34.976Z,396.00
2018-07-11T03:31:34.967Z,412.00
2018-07-11T03:32:35.043Z,432.00
2018-07-11T03:33:34.940Z,448.00
2018-07-11T03:34:34.934Z,468.00
2018-07-11T03:35:34.937Z,488.00
2018-07-11T03:36:34.909Z,516.00
2018-07-11T03:37:34.897Z,540.00
2018-07-11T03:38:34.889Z,564.00
2018-07-11T03:39:34.876Z,592.00
2018-07-11T03:40:34.869Z,612.00
2018-07-11T03:41:34.873Z,636.00
2018-07-11T03:42:34.842Z,648.00
2018-07-11T03:43:34.837Z,660.00
2018-07-11T03:44:34.839Z,684.00
2018-07-11T03:45:34.816Z,716.00
2018-07-11T03:46:34.805Z,744.00
2018-07-11T03:47:34.788Z,772.00
2018-07-11T03:48:34.797Z,800.00
2018-07-11T03:49:34.783Z,820.00
2018-07-11T03:50:34.774Z,860.00
2018-07-11T03:51:34.748Z,896.00
2018-07-11T03:52:34.735Z,964.00
2018-07-11T03:53:34.724Z,1096.00
2018-07-11T03:54:34.719Z,1176.00
2018-07-11T03:55:34.719Z,1300.00
2018-07-11T03:56:34.692Z,1452.00
2018-07-11T03:57:34.681Z,1604.00
2018-07-11T03:58:34.672Z,1696.00
2018-07-11T03:59:34.663Z,1780.00
2018-07-11T04:00:34.666Z,1796.00
2018-07-11T04:01:34.640Z,1836.00
2018-07-11T04:02:34.627Z,1832.00
2018-07-11T04:03:34.621Z,1820.00
2018-07-11T04:04:34.605Z,1812.00
2018-07-11T04:05:34.611Z,1868.00
2018-07-11T04:06:34.587Z,1904.00
2018-07-11T04:07:34.575Z,1836.00
2018-07-11T04:08:34.567Z,1744.00
2018-07-11T04:09:34.559Z,1676.00
2018-07-11T04:10:34.539Z,1628.00
2018-07-11T04:11:34.564Z,1640.00
2018-07-11T04:12:34.518Z,1660.00
2018-07-11T04:13:34.509Z,1716.00
2018-07-11T04:14:34.496Z,1820.00
2018-07-11T04:15:34.488Z,1936.00
2018-07-11T04:16:34.476Z,2012.00
2018-07-11T04:17:34.488Z,2152.00
2018-07-11T04:18:34.456Z,2348.00
2018-07-11T04:19:34.443Z,2548.00
2018-07-11T04:20:34.435Z,2756.00
2018-07-11T04:21:34.425Z,3136.00
2018-07-11T04:22:34.412Z,3264.00
2018-07-11T04:23:34.423Z,3128.00
2018-07-11T04:24:34.387Z,3032.00
2018-07-11T04:25:34.377Z,2928.00
2018-07-11T04:26:34.369Z,2808.00
2018-07-11T04:27:34.359Z,2580.00
2018-07-11T04:28:34.347Z,2332.00
2018-07-11T04:29:34.346Z,2172.00
2018-07-11T04:30:34.332Z,2084.00
2018-07-11T04:31:34.312Z,2056.00
2018-07-11T04:32:34.303Z,2024.00
2018-07-11T04:33:34.300Z,2016.00
2018-07-11T04:34:34.287Z,2116.00
2018-07-11T04:35:34.268Z,2228.00
2018-07-11T04:36:34.269Z,2408.00
2018-07-11T04:37:34.247Z,2568.00
2018-07-11T04:38:34.234Z,2744.00
2018-07-11T04:39:34.235Z,3012.00
2018-07-11T04:40:34.212Z,3232.00
2018-07-11T04:41:34.202Z,3524.00
2018-07-11T04:42:34.208Z,3744.00
2018-07-11T04:43:34.183Z,3976.00
2018-07-11T04:44:34.180Z,4136.00
2018-07-11T04:45:34.162Z,4328.00
2018-07-11T04:46:34.150Z,4604.00
2018-07-11T04:47:34.139Z,4796.00
2018-07-11T04:48:34.124Z,4988.00
2018-07-11T04:49:34.126Z,5208.00
2018-07-11T04:50:34.117Z,5464.00
2018-07-11T04:51:34.091Z,5748.00
2018-07-11T04:52:34.118Z,6028.00
2018-07-11T04:53:34.069Z,6212.00
2018-07-11T04:54:34.058Z,6292.00
2018-07-11T04:55:34.052Z,6404.00
2018-07-11T04:56:34.041Z,6484.00
2018-07-11T04:57:34.029Z,6464.00
2018-07-11T04:58:34.036Z,6456.00
2018-07-11T04:59:34.005Z,6456.00
2018-07-11T05:00:34.007Z,6448.00
2018-07-11T05:01:33.985Z,6480.00
2018-07-11T05:02:33.978Z,6584.00
2018-07-11T05:03:33.961Z,6704.00
2018-07-11T05:04:33.949Z,6812.00
2018-07-11T05:05:33.961Z,6744.00
2018-07-11T05:06:33.932Z,6632.00
2018-07-11T05:07:33.919Z,6540.00
2018-07-11T05:08:33.910Z,6556.00
2018-07-11T05:09:33.901Z,6612.00
2018-07-11T05:10:33.891Z,6580.00
2018-07-11T05:11:33.891Z,6448.00
2018-07-11T05:12:33.867Z,6240.00
2018-07-11T05:13:33.855Z,6020.00
2018-07-11T05:14:33.847Z,5884.00
2018-07-11T05:15:33.845Z,5756.00
2018-07-11T05:16:33.825Z,5696.00
2018-07-11T05:17:33.812Z,5656.00
2018-07-11T05:18:33.832Z,5628.00
2018-07-11T05:19:33.792Z,5532.00
2018-07-11T05:20:33.781Z,5324.00
2018-07-11T05:21:33.771Z,5020.00
2018-07-11T05:22:33.760Z,4720.00
2018-07-11T05:23:33.748Z,4464.00
2018-07-11T05:24:33.756Z,4352.00
2018-07-11T05:25:33.731Z,4340.00
2018-07-11T05:26:33.721Z,4388.00
2018-07-11T05:27:33.744Z,4432.00
2018-07-11T05:28:33.700Z,4496.00
2018-07-11T05:29:33.704Z,4572.00
2018-07-11T05:30:33.678Z,4632.00
2018-07-11T05:31:33.665Z,4668.00
2018-07-11T05:32:33.661Z,4700.00
2018-07-11T05:33:33.650Z,4780.00
2018-07-11T05:34:33.661Z,4932.00
2018-07-11T05:35:33.624Z,5196.00
2018-07-11T05:36:33.614Z,5512.00
2018-07-11T05:37:33.602Z,5888.00
2018-07-11T05:38:33.593Z,6228.00
2018-07-11T05:39:33.584Z,6364.00
2018-07-11T05:40:33.599Z,6336.00
2018-07-11T05:41:33.563Z,6220.00
2018-07-11T05:42:33.599Z,6004.00
2018-07-11T05:43:33.551Z,5864.00
2018-07-11T05:44:33.528Z,5700.00
2018-07-11T05:45:33.521Z,5608.00
2018-07-11T05:46:33.509Z,5596.00
2018-07-11T05:47:33.513Z,5600.00
2018-07-11T05:48:33.487Z,5696.00
2018-07-11T05:49:33.479Z,5960.00
2018-07-11T05:50:33.466Z,6220.00
2018-07-11T05:51:33.459Z,6656.00
2018-07-11T05:52:33.465Z,7140.00
2018-07-11T05:53:33.437Z,7564.00
2018-07-11T05:54:33.437Z,8052.00
2018-07-11T05:55:33.414Z,8660.00
2018-07-11T05:56:33.404Z,9244.00
2018-07-11T05:57:33.395Z,9624.00
2018-07-11T05:58:33.398Z,9584.00
2018-07-11T05:59:33.372Z,9428.00
2018-07-11T06:00:33.359Z,9264.00
2018-07-11T06:01:33.348Z,9268.00
2018-07-11T06:02:33.341Z,9324.00
2018-07-11T06:03:33.330Z,9356.00
2018-07-11T06:04:33.337Z,9192.00
2018-07-11T06:05:33.349Z,8908.00
2018-07-11T06:06:33.294Z,8788.00
2018-07-11T06:07:33.282Z,8796.00
2018-07-11T06:08:33.274Z,8764.00
2018-07-11T06:09:33.263Z,8480.00
2018-07-11T06:10:33.266Z,8256.00
2018-07-11T06:11:33.237Z,8300.00
2018-07-11T06:12:33.227Z,8356.00
2018-07-11T06:13:33.278Z,8136.00
2018-07-11T06:14:33.207Z,7968.00
2018-07-11T06:15:33.193Z,7988.00
2018-07-11T06:16:33.184Z,8304.00
2018-07-11T06:17:33.173Z,8720.00
2018-07-11T06:18:33.176Z,9180.00
2018-07-11T06:19:33.154Z,9540.00
2018-07-11T06:20:33.145Z,9668.00
2018-07-11T06:21:33.126Z,9608.00
2018-07-11T06:22:33.118Z,9476.00
2018-07-11T06:23:33.106Z,9116.00
2018-07-11T06:24:33.110Z,8728.00
2018-07-11T06:25:33.083Z,8336.00
2018-07-11T06:26:33.074Z,7892.00
2018-07-11T06:27:33.065Z,7624.00
2018-07-11T06:28:33.049Z,7552.00
2018-07-11T06:29:33.053Z,7560.00
2018-07-11T06:30:33.029Z,7596.00
2018-07-11T06:31:33.019Z,7392.00
2018-07-11T06:32:33.007Z,7300.00
2018-07-11T06:33:33.132Z,7524.00
2018-07-11T06:34:32.987Z,7960.00
2018-07-11T06:35:33.015Z,8136.00
2018-07-11T06:36:32.962Z,8204.00
2018-07-11T06:37:32.957Z,8368.00
2018-07-11T06:38:32.945Z,8640.00
2018-07-11T06:39:32.930Z,9264.00
2018-07-11T06:40:32.922Z,10032.00
2018-07-11T06:41:32.924Z,10628.00
2018-07-11T06:42:32.900Z,11240.00
2018-07-11T06:43:32.884Z,11732.00
2018-07-11T06:44:32.972Z,12108.00
2018-07-11T06:45:32.880Z,11976.00
2018-07-11T06:46:32.859Z,11900.00
2018-07-11T06:47:32.841Z,12228.00
2018-07-11T06:48:32.830Z,12684.00
2018-07-11T06:49:32.817Z,12824.00
2018-07-11T06:50:32.823Z,12612.00
2018-07-11T06:51:32.798Z,12536.00
2018-07-11T06:52:32.785Z,12684.00
2018-07-11T06:53:32.793Z,12696.00
2018-07-11T06:54:32.766Z,12420.00
2018-07-11T06:55:32.753Z,12076.00
2018-07-11T06:56:32.744Z,11936.00
2018-07-11T06:57:32.779Z,12112.00
2018-07-11T06:58:32.723Z,12472.00
2018-07-11T06:59:32.725Z,12808.00
2018-07-11T07:00:32.698Z,12956.00
2018-07-11T07:01:32.724Z,12972.00
2018-07-11T07:02:32.680Z,12984.00
2018-07-11T07:03:32.745Z,13044.00
2018-07-11T07:04:32.656Z,13028.00
2018-07-11T07:05:32.647Z,12980.00
2018-07-11T07:06:32.635Z,13108.00
2018-07-11T07:07:32.637Z,13664.00
2018-07-11T07:08:32.624Z,14224.00
2018-07-11T07:09:32.600Z,14392.00
2018-07-11T07:10:32.610Z,14244.00
2018-07-11T07:11:32.583Z,13832.00
2018-07-11T07:12:32.567Z,13312.00
2018-07-11T07:13:32.556Z,12832.00
2018-07-11T07:14:32.547Z,12600.00
2018-07-11T07:15:32.539Z,12592.00
2018-07-11T07:16:32.552Z,12940.00
2018-07-11T07:17:32.518Z,13616.00
2018-07-11T07:18:32.504Z,14288.00
2018-07-11T07:19:32.492Z,14712.00
2018-07-11T07:20:32.493Z,14356.00
2018-07-11T07:21:32.493Z,14108.00
2018-07-11T07:22:32.537Z,13716.00
2018-07-11T07:23:32.449Z,13252.00
2018-07-11T07:24:32.442Z,12864.00
2018-07-11T07:25:32.428Z,12888.00
2018-07-11T07:26:32.419Z,13096.00
2018-07-11T07:27:32.423Z,12692.00
2018-07-11T07:28:32.397Z,12004.00
2018-07-11T07:29:32.383Z,11464.00
2018-07-11T07:30:32.373Z,11320.00
2018-07-11T07:31:32.364Z,10912.00
2018-07-11T07:32:32.364Z,10620.00
2018-07-11T07:33:32.342Z,10044.00
2018-07-11T07:34:32.330Z,9732.00
2018-07-11T07:35:32.318Z,9200.00
2018-07-11T07:36:32.329Z,8880.00
2018-07-11T07:37:32.301Z,9160.00
2018-07-11T07:38:32.288Z,9356.00
2018-07-11T07:39:32.276Z,9540.00
2018-07-11T07:40:32.264Z,9768.00
2018-07-11T07:41:32.254Z,10104.00
2018-07-11T07:42:32.282Z,10636.00
2018-07-11T07:43:32.233Z,11284.00
2018-07-11T07:44:32.224Z,11492.00
2018-07-11T07:45:32.210Z,11588.00
2018-07-11T07:46:32.198Z,10868.00
2018-07-11T07:47:32.188Z,10252.00
2018-07-11T07:48:32.192Z,10172.00
2018-07-11T07:49:32.170Z,10724.00
2018-07-11T07:50:32.157Z,11364.00
2018-07-11T07:51:32.145Z,11696.00
2018-07-11T07:52:32.153Z,11876.00
2018-07-11T07:53:32.123Z,11972.00
2018-07-11T07:54:32.111Z,11832.00
2018-07-11T07:55:32.100Z,11348.00
2018-07-11T07:56:32.090Z,10960.00
2018-07-11T07:57:32.078Z,10900.00
2018-07-11T07:58:32.082Z,10992.00
2018-07-11T07:59:32.057Z,10968.00
2018-07-11T08:00:32.074Z,10892.00
2018-07-11T08:01:32.037Z,10868.00
2018-07-11T08:02:32.025Z,11460.00
2018-07-11T08:03:32.025Z,12264.00
2018-07-11T08:04:32.003Z,12800.00
2018-07-11T08:05:32.008Z,13152.00
2018-07-11T08:06:31.982Z,13280.00
2018-07-11T08:07:31.970Z,13340.00
2018-07-11T08:08:31.971Z,13296.00
2018-07-11T08:09:31.948Z,12936.00
2018-07-11T08:10:31.944Z,12740.00
2018-07-11T08:11:31.928Z,12312.00
2018-07-11T08:12:31.973Z,12108.00
2018-07-11T08:13:31.905Z,11764.00
2018-07-11T08:14:31.894Z,10952.00
2018-07-11T08:15:31.883Z,10452.00
2018-07-11T08:16:31.872Z,10140.00
2018-07-11T08:17:31.858Z,9612.00
2018-07-11T08:18:31.863Z,8496.00
2018-07-11T08:19:31.839Z,8164.00
2018-07-11T08:20:31.826Z,8728.00
2018-07-11T08:21:31.922Z,10324.00
2018-07-11T08:22:31.820Z,11932.00
2018-07-11T08:23:31.813Z,13272.00
2018-07-11T08:24:31.785Z,13344.00
2018-07-11T08:25:31.774Z,14156.00
2018-07-11T08:26:31.760Z,15532.00
2018-07-11T08:27:31.823Z,16992.00
2018-07-11T08:28:31.740Z,17760.00
2018-07-11T08:29:31.742Z,17824.00
2018-07-11T08:30:31.716Z,18784.00
2018-07-11T08:31:31.705Z,19968.00
2018-07-11T08:32:31.707Z,20608.00
2018-07-11T08:33:31.687Z,20320.00
2018-07-11T08:34:31.718Z,18944.00
2018-07-11T08:35:31.662Z,17312.00
2018-07-11T08:36:31.677Z,15828.00
2018-07-11T08:37:31.640Z,15336.00
2018-07-11T08:38:31.629Z,15540.00
2018-07-11T08:39:31.620Z,15384.00
2018-07-11T08:40:31.614Z,14852.00
2018-07-11T08:41:31.598Z,14880.00
2018-07-11T08:42:31.601Z,16012.00
2018-07-11T08:43:31.578Z,15456.00
2018-07-11T08:44:31.567Z,14728.00
2018-07-11T08:45:31.557Z,13760.00
2018-07-11T08:46:31.546Z,13396.00
2018-07-11T08:47:31.555Z,13752.00
2018-07-11T08:48:31.526Z,14232.00
2018-07-11T08:49:31.524Z,14880.00
2018-07-11T08:50:31.502Z,15404.00
2018-07-11T08:51:31.487Z,16092.00
2018-07-11T08:52:31.491Z,16896.00
2018-07-11T08:53:31.469Z,17344.00
2018-07-11T08:54:31.459Z,17696.00
2018-07-11T08:55:31.460Z,19168.00
2018-07-11T08:56:31.434Z,19936.00
2018-07-11T08:57:31.455Z,19584.00
2018-07-11T08:58:31.464Z,19456.00
2018-07-11T08:59:31.399Z,18272.00
2018-07-11T09:00:31.388Z,17120.00
2018-07-11T09:01:31.380Z,16800.00
2018-07-11T09:02:31.371Z,13892.00
2018-07-11T09:03:31.356Z,11172.00
2018-07-11T09:04:31.360Z,9128.00
2018-07-11T09:05:31.359Z,8024.00
2018-07-11T09:06:31.326Z,9600.00
2018-07-11T09:07:31.314Z,11152.00
2018-07-11T09:08:31.305Z,12060.00
2018-07-11T09:09:31.293Z,11292.00
2018-07-11T09:10:31.292Z,11140.00
2018-07-11T09:11:31.286Z,11260.00
2018-07-11T09:12:31.257Z,11372.00
2018-07-11T09:13:31.244Z,11472.00
2018-07-11T09:14:31.237Z,12764.00
2018-07-11T09:15:31.226Z,14052.00
2018-07-11T09:16:31.212Z,14340.00
2018-07-11T09:17:31.233Z,15964.00
2018-07-11T09:18:31.190Z,16420.00
2018-07-11T09:19:31.179Z,17728.00
2018-07-11T09:20:31.168Z,21248.00
2018-07-11T09:21:31.155Z,22368.00
2018-07-11T09:22:31.146Z,22912.00
2018-07-11T09:23:31.166Z,22944.00
2018-07-11T09:24:31.128Z,23040.00
2018-07-11T09:25:31.114Z,22624.00
2018-07-11T09:26:31.101Z,22176.00
2018-07-11T09:27:31.101Z,21472.00
2018-07-11T09:28:31.081Z,20864.00
2018-07-11T09:29:31.084Z,25024.00
2018-07-11T09:30:31.082Z,26144.00
2018-07-11T09:31:31.048Z,24960.00
2018-07-11T09:32:31.037Z,25984.00
2018-07-11T09:33:31.027Z,25888.00
2018-07-11T09:34:31.031Z,25152.00
2018-07-11T09:35:31.004Z,23648.00
2018-07-11T09:36:30.997Z,20256.00
2018-07-11T09:37:30.989Z,17440.00
2018-07-11T09:38:30.975Z,13988.00
2018-07-11T09:39:30.975Z,12024.00
2018-07-11T09:40:30.951Z,10972.00
2018-07-11T09:41:30.942Z,10608.00
2018-07-11T09:42:30.929Z,10868.00
2018-07-11T09:43:30.938Z,13576.00
2018-07-11T09:44:30.915Z,15880.00
2018-07-11T09:45:30.913Z,15448.00
2018-07-11T09:46:30.886Z,15556.00
2018-07-11T09:47:30.882Z,15632.00
2018-07-11T09:48:30.868Z,15192.00
2018-07-11T09:49:30.875Z,14420.00
2018-07-11T09:50:30.845Z,12708.00
2018-07-11T09:51:30.833Z,10696.00
2018-07-11T09:52:30.823Z,8464.00
2018-07-11T09:53:30.814Z,7004.00
2018-07-11T09:54:30.800Z,7000.00
2018-07-11T09:55:30.808Z,7212.00
2018-07-11T09:56:30.778Z,8424.00
2018-07-11T09:57:30.768Z,9192.00
2018-07-11T09:58:30.760Z,9972.00
2018-07-11T09:59:30.745Z,9960.00
2018-07-11T10:00:30.736Z,9588.00
2018-07-11T10:01:30.741Z,9516.00
2018-07-11T10:02:30.713Z,9476.00
2018-07-11T10:03:30.700Z,8524.00
2018-07-11T10:04:30.705Z,9460.00
2018-07-11T10:05:30.681Z,12000.00
2018-07-11T10:06:30.687Z,14312.00
2018-07-11T10:07:30.666Z,14584.00
2018-07-11T10:08:30.645Z,14952.00
2018-07-11T10:09:30.647Z,15340.00
2018-07-11T10:10:30.623Z,15852.00
2018-07-11T10:11:30.614Z,16288.00
2018-07-11T10:12:30.632Z,16992.00
2018-07-11T10:13:30.588Z,16752.00
2018-07-11T10:14:30.578Z,16108.00
2018-07-11T10:15:30.569Z,14500.00
2018-07-11T10:16:30.562Z,13140.00
2018-07-11T10:17:30.561Z,12484.00
2018-07-11T10:18:30.537Z,10860.00
2018-07-11T10:19:30.523Z,10236.00
2018-07-11T10:20:30.511Z,10328.00
2018-07-11T10:21:30.505Z,9692.00
2018-07-11T10:22:30.511Z,8632.00
2018-07-11T10:23:30.479Z,8844.00
2018-07-11T10:24:30.471Z,9104.00
2018-07-11T10:25:30.461Z,8124.00
2018-07-11T10:26:30.452Z,7520.00
2018-07-11T10:27:30.436Z,8860.00
2018-07-11T10:28:30.438Z,11396.00
2018-07-11T10:29:30.420Z,13224.00
2018-07-11T10:30:30.419Z,13920.00
2018-07-11T10:31:30.391Z,14600.00
2018-07-11T10:32:30.382Z,15256.00
2018-07-11T10:33:30.417Z,15896.00
2018-07-11T10:34:30.375Z,14096.00
2018-07-11T10:35:30.350Z,11692.00
2018-07-11T10:36:30.350Z,10736.00
2018-07-11T10:37:30.325Z,10732.00
2018-07-11T10:38:30.313Z,10228.00
2018-07-11T10:39:30.311Z,9152.00
2018-07-11T10:40:30.295Z,8060.00
2018-07-11T10:41:30.296Z,7800.00
2018-07-11T10:42:30.285Z,8276.00
2018-07-11T10:43:30.260Z,9672.00
2018-07-11T10:44:30.249Z,11336.00
2018-07-11T10:45:30.237Z,12692.00
2018-07-11T10:46:30.227Z,13652.00
2018-07-11T10:47:30.211Z,14452.00
2018-07-11T10:48:30.216Z,13268.00
2018-07-11T10:49:30.191Z,11520.00
2018-07-11T10:50:30.231Z,9792.00
2018-07-11T10:51:30.186Z,9048.00
2018-07-11T10:52:30.160Z,9032.00
2018-07-11T10:53:30.148Z,9200.00
2018-07-11T10:54:30.140Z,10060.00
2018-07-11T10:55:30.127Z,11336.00
2018-07-11T10:56:30.115Z,11936.00
2018-07-11T10:57:30.176Z,12348.00
2018-07-11T10:58:30.093Z,11128.00
2018-07-11T10:59:30.082Z,8972.00
2018-07-11T11:00:36.664Z,6564.00
2018-07-11T11:01:30.099Z,5344.00
2018-07-11T11:02:30.065Z,4396.00
2018-07-11T11:03:30.037Z,3480.00
2018-07-11T11:04:30.024Z,2888.00
2018-07-11T11:05:30.013Z,2716.00
2018-07-11T11:06:30.007Z,2752.00
2018-07-11T11:07:30.011Z,3144.00
2018-07-11T11:08:29.982Z,3620.00
2018-07-11T11:09:29.974Z,3544.00
2018-07-11T11:10:29.961Z,3256.00
2018-07-11T11:11:29.949Z,2976.00
2018-07-11T11:12:29.937Z,2892.00
2018-07-11T11:13:29.969Z,2880.00
2018-07-11T11:14:29.916Z,3132.00
2018-07-11T11:15:29.902Z,4028.00
2018-07-11T11:16:29.894Z,4352.00
2018-07-11T11:17:29.880Z,4364.00
2018-07-11T11:18:29.872Z,5612.00
2018-07-11T11:19:29.880Z,6992.00
2018-07-11T11:20:29.850Z,6144.00
2018-07-11T11:21:29.840Z,5244.00
2018-07-11T11:22:29.826Z,4832.00
2018-07-11T11:23:29.816Z,3920.00
2018-07-11T11:24:29.805Z,2796.00
2018-07-11T11:25:29.805Z,2952.00
2018-07-11T11:26:29.786Z,3496.00
2018-07-11T11:27:29.791Z,4032.00
2018-07-11T11:28:29.780Z,5408.00
2018-07-11T11:29:29.750Z,6692.00
2018-07-11T11:30:29.741Z,6340.00
2018-07-11T11:31:29.730Z,5580.00
2018-07-11T11:32:29.720Z,6300.00
2018-07-11T11:33:29.706Z,9916.00
2018-07-11T11:34:29.709Z,11600.00
2018-07-11T11:35:29.685Z,13480.00
2018-07-11T11:36:29.674Z,13668.00
2018-07-11T11:37:29.673Z,11592.00
2018-07-11T11:38:29.650Z,11356.00
2018-07-11T11:39:29.640Z,16000.00
2018-07-11T11:40:29.626Z,17792.00
2018-07-11T11:41:29.689Z,15108.00
2018-07-11T11:42:29.839Z,14752.00
2018-07-11T11:43:29.594Z,16556.00
2018-07-11T11:44:29.584Z,18496.00
2018-07-11T11:45:29.569Z,16000.00
2018-07-11T11:46:29.562Z,14284.00
2018-07-11T11:47:29.549Z,14336.00
2018-07-11T11:48:29.559Z,15896.00
2018-07-11T11:49:29.524Z,14448.00
2018-07-11T11:50:29.516Z,13340.00
2018-07-11T11:51:29.505Z,10988.00
2018-07-11T11:52:29.491Z,9332.00
2018-07-11T11:53:29.483Z,8736.00
2018-07-11T11:54:29.487Z,9788.00
2018-07-11T11:55:29.459Z,10492.00
2018-07-11T11:56:29.450Z,10420.00
2018-07-11T11:57:29.438Z,10604.00
2018-07-11T11:58:29.489Z,11920.00
2018-07-11T11:59:29.431Z,11572.00
2018-07-11T12:00:29.406Z,11192.00
2018-07-11T12:01:29.404Z,11200.00
2018-07-11T12:02:29.387Z,11600.00
2018-07-11T12:03:29.374Z,12364.00
2018-07-11T12:04:29.360Z,13932.00
2018-07-11T12:05:29.363Z,17536.00
2018-07-11T12:06:29.335Z,21152.00
2018-07-11T12:07:29.329Z,21632.00
2018-07-11T12:08:29.317Z,21376.00
2018-07-11T12:09:29.319Z,20736.00
2018-07-11T12:10:29.296Z,20832.00
2018-07-11T12:11:29.287Z,18848.00
2018-07-11T12:12:29.285Z,17696.00
2018-07-11T12:13:29.259Z,17888.00
2018-07-11T12:14:29.253Z,17184.00
2018-07-11T12:15:29.256Z,15628.00